Main page
METAR-TAF:

METAR-TAF

Airports :

San Sebastián, Spain

San Sebastián Airport

latitude: 43-21N, longitude: 001-48W, elevation: 5 m

Current weather observation

The report was made 20 minutes ago, at 11:30 UTC
Calm wind
Temperature 13°C
Humidity 67%
Pressure 1023 hPa
Visibility 10 km or more
no clouds below 1500 m and no cumulonimbus

METAR: LESO 201130Z 00000KT CAVOK 13/07 Q1023

Time: 12:50 (11:50 UTC)

Forecast

The report was made 50 minutes ago, at 11:00 UTC
Forecast valid from 20 at 12 UTC to 21 at 12 UTC
Wind 5 kt from the Northeast
Visibility 10 km or more
no clouds below 1500 m and no cumulonimbus

TAF: LESO 201100Z 2012/2112 05005KT CAVOK TX16/2014Z TN05/2107Z

Weather observations and forecasts of more than 4000 airports (METAR and TAF reports).

The available stations are represented by yellow and red dots on the map.

Hover mouse over dot to see the name of the station.

Then click to see weather observations and forecasts.

To change the map : click on the green buttons with a black cross to zoom in, on the green button with a dash to zoom out, or on the green arrows for adjacent maps.


METAR-TAF: